sensor_id;sensor_type;location;lat;lon;timestamp;pressure;altitude;pressure_sealevel;temperature;humidity
11525;BME280;5819;49.648;8.330;2023-05-09T00:00:44;100643.97;;;15.07;100.00
11525;BME280;5819;49.648;8.330;2023-05-09T00:03:12;100639.50;;;15.09;100.00
11525;BME280;5819;49.648;8.330;2023-05-09T00:05:42;100638.50;;;15.11;100.00
11525;BME280;5819;49.648;8.330;2023-05-09T00:08:10;100637.03;;;15.06;100.00
11525;BME280;5819;49.648;8.330;2023-05-09T00:10:38;100639.59;;;14.91;100.00
11525;BME280;5819;49.648;8.330;2023-05-09T00:13:06;100631.22;;;14.85;100.00
11525;BME280;5819;49.648;8.330;2023-05-09T00:15:33;100632.06;;;14.70;100.00
11525;BME280;5819;49.648;8.330;2023-05-09T00:18:01;100633.94;;;14.68;100.00
11525;BME280;5819;49.648;8.330;2023-05-09T00:20:29;100626.34;;;14.63;100.00
11525;BME280;5819;49.648;8.330;2023-05-09T00:23:00;100625.91;;;14.55;100.00
11525;BME280;5819;49.648;8.330;2023-05-09T00:25:29;100624.03;;;14.57;100.00
11525;BME280;5819;49.648;8.330;2023-05-09T00:27:57;100628.19;;;14.45;100.00
11525;BME280;5819;49.648;8.330;2023-05-09T00:30:25;100625.13;;;14.37;100.00
11525;BME280;5819;49.648;8.330;2023-05-09T00:32:53;100625.34;;;14.33;100.00
11525;BME280;5819;49.648;8.330;2023-05-09T00:35:21;100616.56;;;14.34;100.00
11525;BME280;5819;49.648;8.330;2023-05-09T00:37:49;100618.44;;;14.32;100.00
11525;BME280;5819;49.648;8.330;2023-05-09T00:40:22;100627.50;;;14.25;100.00
11525;BME280;5819;49.648;8.330;2023-05-09T00:42:50;100625.16;;;14.20;100.00
11525;BME280;5819;49.648;8.330;2023-05-09T00:45:20;100624.03;;;14.24;100.00
11525;BME280;5819;49.648;8.330;2023-05-09T00:47:48;100616.97;;;14.26;100.00
11525;BME280;5819;49.648;8.330;2023-05-09T00:50:18;100612.75;;;14.24;100.00
11525;BME280;5819;49.648;8.330;2023-05-09T00:52:47;100603.09;;;14.24;100.00
11525;BME280;5819;49.648;8.330;2023-05-09T00:55:20;100603.09;;;14.24;100.00
11525;BME280;5819;49.648;8.330;2023-05-09T00:57:49;100603.03;;;14.26;100.00
11525;BME280;5819;49.648;8.330;2023-05-09T01:00:17;100606.56;;;14.25;100.00
11525;BME280;5819;49.648;8.330;2023-05-09T01:02:47;100604.81;;;14.25;100.00
11525;BME280;5819;49.648;8.330;2023-05-09T01:05:16;100600.16;;;14.15;100.00
11525;BME280;5819;49.648;8.330;2023-05-09T01:07:49;100597.72;;;14.12;100.00
11525;BME280;5819;49.648;8.330;2023-05-09T01:10:25;100594.78;;;14.00;100.00
11525;BME280;5819;49.648;8.330;2023-05-09T01:13:02;100595.13;;;13.94;100.00
11525;BME280;5819;49.648;8.330;2023-05-09T01:15:36;100589.66;;;13.99;100.00
11525;BME280;5819;49.648;8.330;2023-05-09T01:18:10;100585.34;;;13.98;100.00
11525;BME280;5819;49.648;8.330;2023-05-09T01:20:42;100588.59;;;13.86;100.00
11525;BME280;5819;49.648;8.330;2023-05-09T01:23:26;100578.94;;;13.88;100.00
11525;BME280;5819;49.648;8.330;2023-05-09T01:26:03;100581.38;;;13.91;100.00
11525;BME280;5819;49.648;8.330;2023-05-09T01:28:46;100580.44;;;13.92;100.00
11525;BME280;5819;49.648;8.330;2023-05-09T01:31:24;100581.53;;;13.88;100.00
11525;BME280;5819;49.648;8.330;2023-05-09T01:33:57;100575.75;;;13.81;100.00
11525;BME280;5819;49.648;8.330;2023-05-09T01:36:27;100574.78;;;13.84;100.00
11525;BME280;5819;49.648;8.330;2023-05-09T01:38:57;100565.97;;;13.85;100.00
11525;BME280;5819;49.648;8.330;2023-05-09T01:41:29;100566.56;;;13.74;100.00
11525;BME280;5819;49.648;8.330;2023-05-09T01:44:00;100576.34;;;13.71;100.00
11525;BME280;5819;49.648;8.330;2023-05-09T01:46:31;100585.09;;;13.70;100.00
11525;BME280;5819;49.648;8.330;2023-05-09T01:49:01;100585.16;;;13.68;100.00
11525;BME280;5819;49.648;8.330;2023-05-09T01:51:31;100571.94;;;13.71;100.00
11525;BME280;5819;49.648;8.330;2023-05-09T01:54:00;100567.19;;;13.62;100.00
11525;BME280;5819;49.648;8.330;2023-05-09T01:56:29;100570.44;;;13.50;100.00
11525;BME280;5819;49.648;8.330;2023-05-09T01:58:59;100567.59;;;13.54;100.00
11525;BME280;5819;49.648;8.330;2023-05-09T02:01:30;100571.56;;;13.62;100.00
11525;BME280;5819;49.648;8.330;2023-05-09T02:04:00;100559.13;;;13.67;100.00
11525;BME280;5819;49.648;8.330;2023-05-09T02:06:30;100560.66;;;13.71;100.00
11525;BME280;5819;49.648;8.330;2023-05-09T02:08:58;100560.66;;;13.71;100.00
11525;BME280;5819;49.648;8.330;2023-05-09T02:11:28;100558.53;;;13.77;100.00
11525;BME280;5819;49.648;8.330;2023-05-09T02:13:56;100559.56;;;13.75;100.00
11525;BME280;5819;49.648;8.330;2023-05-09T02:16:24;100567.13;;;13.64;100.00
11525;BME280;5819;49.648;8.330;2023-05-09T02:18:53;100567.25;;;13.60;100.00
11525;BME280;5819;49.648;8.330;2023-05-09T02:21:21;100569.75;;;13.64;100.00
11525;BME280;5819;49.648;8.330;2023-05-09T02:23:49;100570.66;;;13.63;100.00
11525;BME280;5819;49.648;8.330;2023-05-09T02:26:17;100570.13;;;13.39;100.00
11525;BME280;5819;49.648;8.330;2023-05-09T02:28:45;100559.91;;;13.17;100.00
11525;BME280;5819;49.648;8.330;2023-05-09T02:31:15;100557.97;;;13.03;100.00
11525;BME280;5819;49.648;8.330;2023-05-09T02:33:46;100562.78;;;12.94;100.00
11525;BME280;5819;49.648;8.330;2023-05-09T02:36:16;100558.03;;;13.02;100.00
11525;BME280;5819;49.648;8.330;2023-05-09T02:38:44;100567.09;;;13.12;100.00
11525;BME280;5819;49.648;8.330;2023-05-09T02:41:13;100555.53;;;13.18;100.00
11525;BME280;5819;49.648;8.330;2023-05-09T02:43:41;100558.59;;;13.26;100.00
11525;BME280;5819;49.648;8.330;2023-05-09T02:46:09;100551.53;;;13.28;100.00
11525;BME280;5819;49.648;8.330;2023-05-09T02:48:37;100546.31;;;13.28;100.00
11525;BME280;5819;49.648;8.330;2023-05-09T02:51:05;100548.84;;;13.29;100.00
11525;BME280;5819;49.648;8.330;2023-05-09T02:53:35;100536.41;;;13.34;100.00
11525;BME280;5819;49.648;8.330;2023-05-09T02:56:03;100543.38;;;13.34;100.00
11525;BME280;5819;49.648;8.330;2023-05-09T02:58:30;100546.31;;;13.28;100.00
11525;BME280;5819;49.648;8.330;2023-05-09T03:00:58;100549.75;;;13.28;100.00
11525;BME280;5819;49.648;8.330;2023-05-09T03:03:27;100549.63;;;13.31;100.00
11525;BME280;5819;49.648;8.330;2023-05-09T03:05:55;100547.25;;;13.27;100.00
11525;BME280;5819;49.648;8.330;2023-05-09T03:08:23;100539.69;;;13.21;100.00
11525;BME280;5819;49.648;8.330;2023-05-09T03:10:52;100542.47;;;13.18;100.00
11525;BME280;5819;49.648;8.330;2023-05-09T03:13:21;100540.75;;;13.17;100.00
11525;BME280;5819;49.648;8.330;2023-05-09T03:15:49;100539.91;;;13.16;100.00
11525;BME280;5819;49.648;8.330;2023-05-09T03:18:17;100537.94;;;13.21;100.00
11525;BME280;5819;49.648;8.330;2023-05-09T03:20:46;100541.53;;;13.19;100.00
11525;BME280;5819;49.648;8.330;2023-05-09T03:23:15;100532.19;;;12.96;100.00
11525;BME280;5819;49.648;8.330;2023-05-09T03:25:43;100528.94;;;12.74;100.00
11525;BME280;5819;49.648;8.330;2023-05-09T03:28:12;100515.06;;;12.73;100.00
11525;BME280;5819;49.648;8.330;2023-05-09T03:30:40;100525.75;;;12.86;100.00
11525;BME280;5819;49.648;8.330;2023-05-09T03:33:11;100524.66;;;12.90;100.00
11525;BME280;5819;49.648;8.330;2023-05-09T03:35:39;100528.59;;;12.98;100.00
11525;BME280;5819;49.648;8.330;2023-05-09T03:38:08;100526.47;;;13.06;100.00
11525;BME280;5819;49.648;8.330;2023-05-09T03:40:36;100522.63;;;13.13;100.00
11525;BME280;5819;49.648;8.330;2023-05-09T03:43:08;100513.78;;;13.16;100.00
11525;BME280;5819;49.648;8.330;2023-05-09T03:45:37;100519.69;;;13.02;100.00
11525;BME280;5819;49.648;8.330;2023-05-09T03:48:07;100515.94;;;12.91;100.00
11525;BME280;5819;49.648;8.330;2023-05-09T03:50:39;100517.16;;;12.84;100.00
11525;BME280;5819;49.648;8.330;2023-05-09T03:53:08;100503.38;;;12.80;100.00
11525;BME280;5819;49.648;8.330;2023-05-09T03:55:37;100509.38;;;12.82;100.00
11525;BME280;5819;49.648;8.330;2023-05-09T03:58:07;100510.22;;;12.83;100.00
11525;BME280;5819;49.648;8.330;2023-05-09T04:00:39;100512.69;;;12.86;100.00
11525;BME280;5819;49.648;8.330;2023-05-09T04:03:13;100508.38;;;12.85;100.00
11525;BME280;5819;49.648;8.330;2023-05-09T04:05:45;100520.53;;;12.86;100.00
11525;BME280;5819;49.648;8.330;2023-05-09T04:08:24;100516.91;;;12.88;100.00
11525;BME280;5819;49.648;8.330;2023-05-09T04:10:53;100515.38;;;12.84;100.00
11525;BME280;5819;49.648;8.330;2023-05-09T04:13:23;100515.69;;;12.78;100.00
11525;BME280;5819;49.648;8.330;2023-05-09T04:15:52;100515.00;;;12.75;100.00
11525;BME280;5819;49.648;8.330;2023-05-09T04:18:21;100511.94;;;12.84;100.00
11525;BME280;5819;49.648;8.330;2023-05-09T04:20:49;100512.47;;;12.90;100.00
11525;BME280;5819;49.648;8.330;2023-05-09T04:23:17;100512.31;;;12.93;100.00
11525;BME280;5819;49.648;8.330;2023-05-09T04:25:46;100506.69;;;13.01;100.00
11525;BME280;5819;49.648;8.330;2023-05-09T04:28:17;100512.78;;;13.01;100.00
11525;BME280;5819;49.648;8.330;2023-05-09T04:30:46;100513.22;;;13.09;100.00
11525;BME280;5819;49.648;8.330;2023-05-09T04:33:16;100514.81;;;13.13;100.00
11525;BME280;5819;49.648;8.330;2023-05-09T04:35:44;100519.75;;;13.20;100.00
11525;BME280;5819;49.648;8.330;2023-05-09T04:38:12;100510.34;;;13.33;100.00
11525;BME280;5819;49.648;8.330;2023-05-09T04:40:40;100510.72;;;13.42;100.00
11525;BME280;5819;49.648;8.330;2023-05-09T04:43:09;100504.72;;;13.40;100.00
11525;BME280;5819;49.648;8.330;2023-05-09T04:45:36;100495.28;;;13.38;100.00
11525;BME280;5819;49.648;8.330;2023-05-09T04:48:05;100497.72;;;13.41;100.00
11525;BME280;5819;49.648;8.330;2023-05-09T04:50:34;100492.03;;;13.50;100.00
11525;BME280;5819;49.648;8.330;2023-05-09T04:53:02;100494.16;;;13.59;100.00
11525;BME280;5819;49.648;8.330;2023-05-09T04:55:30;100496.28;;;13.68;100.00
11525;BME280;5819;49.648;8.330;2023-05-09T04:57:57;100493.09;;;13.79;100.00
11525;BME280;5819;49.648;8.330;2023-05-09T05:00:25;100492.63;;;13.88;100.00
11525;BME280;5819;49.648;8.330;2023-05-09T05:02:53;100490.50;;;13.94;100.00
11525;BME280;5819;49.648;8.330;2023-05-09T05:05:24;100485.97;;;13.98;100.00
11525;BME280;5819;49.648;8.330;2023-05-09T05:07:54;100479.63;;;14.02;100.00
11525;BME280;5819;49.648;8.330;2023-05-09T05:10:27;100480.13;;;14.08;100.00
11525;BME280;5819;49.648;8.330;2023-05-09T05:13:03;100476.41;;;14.13;100.00
11525;BME280;5819;49.648;8.330;2023-05-09T05:15:33;100475.31;;;14.17;100.00
11525;BME280;5819;49.648;8.330;2023-05-09T05:18:02;100468.00;;;14.23;100.00
11525;BME280;5819;49.648;8.330;2023-05-09T05:20:33;100467.66;;;14.29;100.00
11525;BME280;5819;49.648;8.330;2023-05-09T05:23:03;100465.63;;;14.34;100.00
11525;BME280;5819;49.648;8.330;2023-05-09T05:25:31;100456.53;;;14.41;100.00
11525;BME280;5819;49.648;8.330;2023-05-09T05:28:00;100451.03;;;14.46;100.00
11525;BME280;5819;49.648;8.330;2023-05-09T05:30:28;100450.50;;;14.55;100.00
11525;BME280;5819;49.648;8.330;2023-05-09T05:33:00;100456.03;;;14.65;100.00
11525;BME280;5819;49.648;8.330;2023-05-09T05:35:27;100458.41;;;14.69;100.00
11525;BME280;5819;49.648;8.330;2023-05-09T05:37:56;100462.66;;;14.72;100.00
11525;BME280;5819;49.648;8.330;2023-05-09T05:40:26;100463.66;;;14.69;100.00
11525;BME280;5819;49.648;8.330;2023-05-09T05:42:55;100470.56;;;14.70;100.00
11525;BME280;5819;49.648;8.330;2023-05-09T05:45:23;100455.25;;;14.78;100.00
11525;BME280;5819;49.648;8.330;2023-05-09T05:47:54;100457.34;;;14.87;100.00
11525;BME280;5819;49.648;8.330;2023-05-09T05:50:22;100461.47;;;14.91;100.00
11525;BME280;5819;49.648;8.330;2023-05-09T05:52:51;100464.94;;;14.92;100.00
11525;BME280;5819;49.648;8.330;2023-05-09T05:55:19;100465.50;;;14.97;100.00
11525;BME280;5819;49.648;8.330;2023-05-09T05:57:48;100461.69;;;15.03;100.00
11525;BME280;5819;49.648;8.330;2023-05-09T06:00:18;100455.78;;;14.99;100.00
11525;BME280;5819;49.648;8.330;2023-05-09T06:02:53;100454.41;;;15.08;100.00
11525;BME280;5819;49.648;8.330;2023-05-09T06:05:26;100450.75;;;15.10;100.00
11525;BME280;5819;49.648;8.330;2023-05-09T06:07:55;100454.78;;;15.16;100.00
11525;BME280;5819;49.648;8.330;2023-05-09T06:10:23;100443.19;;;15.20;100.00
11525;BME280;5819;49.648;8.330;2023-05-09T06:12:52;100445.25;;;15.29;100.00
11525;BME280;5819;49.648;8.330;2023-05-09T06:15:21;100436.75;;;15.39;100.00
11525;BME280;5819;49.648;8.330;2023-05-09T06:17:49;100438.25;;;15.43;100.00
11525;BME280;5819;49.648;8.330;2023-05-09T06:20:17;100435.28;;;15.50;100.00
11525;BME280;5819;49.648;8.330;2023-05-09T06:22:46;100428.81;;;15.55;100.00
11525;BME280;5819;49.648;8.330;2023-05-09T06:25:14;100429.47;;;15.59;100.00
11525;BME280;5819;49.648;8.330;2023-05-09T06:27:42;100431.03;;;15.61;100.00
11525;BME280;5819;49.648;8.330;2023-05-09T06:30:12;100437.41;;;15.57;100.00
11525;BME280;5819;49.648;8.330;2023-05-09T06:32:52;100429.47;;;15.59;100.00
11525;BME280;5819;49.648;8.330;2023-05-09T06:35:19;100435.38;;;15.62;100.00
11525;BME280;5819;49.648;8.330;2023-05-09T06:37:48;100431.63;;;15.66;100.00
11525;BME280;5819;49.648;8.330;2023-05-09T06:40:16;100429.06;;;15.65;100.00
11525;BME280;5819;49.648;8.330;2023-05-09T06:42:44;100422.25;;;15.62;100.00
11525;BME280;5819;49.648;8.330;2023-05-09T06:45:14;100419.81;;;15.59;100.00
11525;BME280;5819;49.648;8.330;2023-05-09T06:47:43;100411.03;;;15.60;100.00
11525;BME280;5819;49.648;8.330;2023-05-09T06:50:14;100412.69;;;15.61;100.00
11525;BME280;5819;49.648;8.330;2023-05-09T06:52:44;100404.75;;;15.63;100.00
11525;BME280;5819;49.648;8.330;2023-05-09T06:55:12;100399.09;;;15.69;100.00
11525;BME280;5819;49.648;8.330;2023-05-09T06:57:43;100403.53;;;15.68;100.00
11525;BME280;5819;49.648;8.330;2023-05-09T07:00:13;100399.00;;;15.70;100.00
11525;BME280;5819;49.648;8.330;2023-05-09T07:02:42;100400.72;;;15.71;100.00
11525;BME280;5819;49.648;8.330;2023-05-09T07:05:10;100401.16;;;15.78;100.00
11525;BME280;5819;49.648;8.330;2023-05-09T07:07:41;100396.19;;;15.73;100.00
11525;BME280;5819;49.648;8.330;2023-05-09T07:10:09;100395.25;;;15.74;100.00
11525;BME280;5819;49.648;8.330;2023-05-09T07:12:39;100395.81;;;15.79;100.00
11525;BME280;5819;49.648;8.330;2023-05-09T07:15:08;100395.34;;;15.87;100.00
11525;BME280;5819;49.648;8.330;2023-05-09T07:17:36;100384.13;;;15.98;100.00
11525;BME280;5819;49.648;8.330;2023-05-09T07:20:07;100370.66;;;16.04;100.00
11525;BME280;5819;49.648;8.330;2023-05-09T07:22:35;100377.94;;;16.13;100.00
11525;BME280;5819;49.648;8.330;2023-05-09T07:25:06;100372.84;;;16.10;100.00
11525;BME280;5819;49.648;8.330;2023-05-09T07:27:34;100372.19;;;16.20;100.00
11525;BME280;5819;49.648;8.330;2023-05-09T07:30:03;100370.50;;;16.19;100.00
11525;BME280;5819;49.648;8.330;2023-05-09T07:32:32;100363.66;;;16.17;100.00
11525;BME280;5819;49.648;8.330;2023-05-09T07:35:00;100363.97;;;16.25;100.00
11525;BME280;5819;49.648;8.330;2023-05-09T07:37:29;100354.88;;;16.30;100.00
11525;BME280;5819;49.648;8.330;2023-05-09T07:39:58;100350.38;;;16.32;100.00
11525;BME280;5819;49.648;8.330;2023-05-09T07:42:25;100349.81;;;16.27;100.00
11525;BME280;5819;49.648;8.330;2023-05-09T07:44:54;100345.22;;;16.31;100.00
11525;BME280;5819;49.648;8.330;2023-05-09T07:47:22;100338.72;;;16.36;100.00
11525;BME280;5819;49.648;8.330;2023-05-09T07:49:50;100340.22;;;16.41;100.00
11525;BME280;5819;49.648;8.330;2023-05-09T07:52:18;100339.44;;;16.38;100.00
11525;BME280;5819;49.648;8.330;2023-05-09T07:54:47;100342.38;;;16.34;100.00
11525;BME280;5819;49.648;8.330;2023-05-09T07:57:15;100343.22;;;16.34;100.00
11525;BME280;5819;49.648;8.330;2023-05-09T07:59:43;100332.31;;;16.41;100.00
11525;BME280;5819;49.648;8.330;2023-05-09T08:02:11;100330.53;;;16.54;100.00
11525;BME280;5819;49.648;8.330;2023-05-09T08:04:39;100323.63;;;16.53;100.00
11525;BME280;5819;49.648;8.330;2023-05-09T08:07:07;100314.63;;;16.57;100.00
11525;BME280;5819;49.648;8.330;2023-05-09T08:09:37;100314.28;;;16.61;100.00
11525;BME280;5819;49.648;8.330;2023-05-09T08:12:06;100312.53;;;16.74;100.00
11525;BME280;5819;49.648;8.330;2023-05-09T08:14:34;100306.88;;;16.80;100.00
11525;BME280;5819;49.648;8.330;2023-05-09T08:17:02;100296.00;;;16.98;100.00
11525;BME280;5819;49.648;8.330;2023-05-09T08:19:30;100292.94;;;17.16;100.00
11525;BME280;5819;49.648;8.330;2023-05-09T08:21:58;100293.03;;;17.15;100.00
11525;BME280;5819;49.648;8.330;2023-05-09T08:24:26;100287.56;;;17.18;100.00
11525;BME280;5819;49.648;8.330;2023-05-09T08:26:54;100285.38;;;17.12;100.00
11525;BME280;5819;49.648;8.330;2023-05-09T08:29:24;100290.72;;;17.10;100.00
11525;BME280;5819;49.648;8.330;2023-05-09T08:31:51;100291.69;;;17.09;100.00
11525;BME280;5819;49.648;8.330;2023-05-09T08:34:20;100293.50;;;17.09;100.00
11525;BME280;5819;49.648;8.330;2023-05-09T08:36:48;100289.16;;;17.08;100.00
11525;BME280;5819;49.648;8.330;2023-05-09T08:39:16;100272.88;;;17.03;100.00
11525;BME280;5819;49.648;8.330;2023-05-09T08:41:45;100269.78;;;17.21;100.00
11525;BME280;5819;49.648;8.330;2023-05-09T08:44:13;100263.00;;;17.43;100.00
11525;BME280;5819;49.648;8.330;2023-05-09T08:46:43;100266.13;;;17.60;100.00
11525;BME280;5819;49.648;8.330;2023-05-09T08:49:13;100267.53;;;17.77;100.00
11525;BME280;5819;49.648;8.330;2023-05-09T08:51:43;100264.81;;;17.90;100.00
11525;BME280;5819;49.648;8.330;2023-05-09T08:54:13;100255.63;;;17.95;100.00
11525;BME280;5819;49.648;8.330;2023-05-09T08:56:41;100259.09;;;17.96;100.00
11525;BME280;5819;49.648;8.330;2023-05-09T08:59:09;100258.91;;;18.10;100.00
11525;BME280;5819;49.648;8.330;2023-05-09T09:01:37;100255.56;;;18.08;100.00
11525;BME280;5819;49.648;8.330;2023-05-09T09:04:07;100263.53;;;17.95;100.00
11525;BME280;5819;49.648;8.330;2023-05-09T09:06:35;100254.41;;;17.88;100.00
11525;BME280;5819;49.648;8.330;2023-05-09T09:09:05;100260.25;;;17.81;100.00
11525;BME280;5819;49.648;8.330;2023-05-09T09:11:34;100247.09;;;17.81;100.00
11525;BME280;5819;49.648;8.330;2023-05-09T09:14:05;100246.19;;;17.93;100.00
11525;BME280;5819;49.648;8.330;2023-05-09T09:16:37;100242.72;;;18.03;100.00
11525;BME280;5819;49.648;8.330;2023-05-09T09:19:10;100247.63;;;17.97;100.00
11525;BME280;5819;49.648;8.330;2023-05-09T09:21:40;100245.44;;;17.91;100.00
11525;BME280;5819;49.648;8.330;2023-05-09T09:24:11;100235.31;;;17.73;100.00
11525;BME280;5819;49.648;8.330;2023-05-09T09:26:47;100239.03;;;17.71;100.00
11525;BME280;5819;49.648;8.330;2023-05-09T09:29:16;100234.22;;;17.65;100.00
11525;BME280;5819;49.648;8.330;2023-05-09T09:31:45;100222.97;;;17.63;100.00
11525;BME280;5819;49.648;8.330;2023-05-09T09:34:20;100217.31;;;17.80;100.00
11525;BME280;5819;49.648;8.330;2023-05-09T09:36:48;100214.03;;;18.11;100.00
11525;BME280;5819;49.648;8.330;2023-05-09T09:39:17;100214.28;;;18.08;100.00
11525;BME280;5819;49.648;8.330;2023-05-09T09:41:45;100212.31;;;17.99;100.00
11525;BME280;5819;49.648;8.330;2023-05-09T09:44:14;100202.97;;;17.84;100.00
11525;BME280;5819;49.648;8.330;2023-05-09T09:46:43;100204.75;;;17.84;100.00
11525;BME280;5819;49.648;8.330;2023-05-09T09:49:12;100203.28;;;17.80;100.00
11525;BME280;5819;49.648;8.330;2023-05-09T09:51:42;100193.44;;;17.70;100.00
11525;BME280;5819;49.648;8.330;2023-05-09T09:54:11;100198.47;;;17.73;100.00
11525;BME280;5819;49.648;8.330;2023-05-09T09:56:41;100189.53;;;17.76;100.00
11525;BME280;5819;49.648;8.330;2023-05-09T09:59:10;100184.03;;;17.79;100.00
11525;BME280;5819;49.648;8.330;2023-05-09T10:01:53;100192.28;;;17.74;100.00
11525;BME280;5819;49.648;8.330;2023-05-09T10:04:22;100182.22;;;17.68;100.00
11525;BME280;5819;49.648;8.330;2023-05-09T10:06:52;100184.38;;;17.74;100.00
11525;BME280;5819;49.648;8.330;2023-05-09T10:09:22;100177.16;;;17.89;100.00
11525;BME280;5819;49.648;8.330;2023-05-09T10:11:51;100174.28;;;17.92;100.00
11525;BME280;5819;49.648;8.330;2023-05-09T10:14:22;100176.22;;;18.01;100.00
11525;BME280;5819;49.648;8.330;2023-05-09T10:16:54;100160.91;;;18.17;100.00
11525;BME280;5819;49.648;8.330;2023-05-09T10:19:48;100146.06;;;18.39;100.00
11525;BME280;5819;49.648;8.330;2023-05-09T10:22:19;100143.19;;;18.86;100.00
11525;BME280;5819;49.648;8.330;2023-05-09T10:24:54;100133.19;;;19.12;100.00
11525;BME280;5819;49.648;8.330;2023-05-09T10:27:30;100131.25;;;19.14;100.00
11525;BME280;5819;49.648;8.330;2023-05-09T10:30:02;100126.13;;;19.12;100.00
11525;BME280;5819;49.648;8.330;2023-05-09T10:32:38;100120.84;;;19.12;100.00
11525;BME280;5819;49.648;8.330;2023-05-09T10:35:09;100115.16;;;19.81;100.00
11525;BME280;5819;49.648;8.330;2023-05-09T10:37:41;100099.09;;;20.44;100.00
11525;BME280;5819;49.648;8.330;2023-05-09T10:40:10;100091.94;;;20.66;100.00
11525;BME280;5819;49.648;8.330;2023-05-09T10:42:41;100093.88;;;20.54;100.00
11525;BME280;5819;49.648;8.330;2023-05-09T10:45:10;100097.72;;;20.20;100.00
11525;BME280;5819;49.648;8.330;2023-05-09T10:47:41;100096.91;;;19.98;100.00
11525;BME280;5819;49.648;8.330;2023-05-09T10:50:11;100092.63;;;19.77;100.00
11525;BME280;5819;49.648;8.330;2023-05-09T10:53:06;100089.06;;;19.87;100.00
11525;BME280;5819;49.648;8.330;2023-05-09T10:55:37;100078.56;;;19.97;100.00
11525;BME280;5819;49.648;8.330;2023-05-09T10:58:20;100072.75;;;20.03;100.00
11525;BME280;5819;49.648;8.330;2023-05-09T11:00:49;100063.91;;;20.14;100.00
11525;BME280;5819;49.648;8.330;2023-05-09T11:03:17;100054.50;;;20.21;100.00
11525;BME280;5819;49.648;8.330;2023-05-09T11:05:47;100056.94;;;20.43;100.00
11525;BME280;5819;49.648;8.330;2023-05-09T11:08:21;100046.56;;;20.61;100.00
11525;BME280;5819;49.648;8.330;2023-05-09T11:10:51;100036.72;;;20.82;96.40
11525;BME280;5819;49.648;8.330;2023-05-09T11:13:20;100028.78;;;21.11;98.39
11525;BME280;5819;49.648;8.330;2023-05-09T11:16:17;100018.75;;;20.95;94.37
11525;BME280;5819;49.648;8.330;2023-05-09T11:18:50;100024.91;;;21.05;92.52
11525;BME280;5819;49.648;8.330;2023-05-09T11:21:19;100014.31;;;21.24;92.36
11525;BME280;5819;49.648;8.330;2023-05-09T11:23:49;100019.31;;;21.08;94.40
11525;BME280;5819;49.648;8.330;2023-05-09T11:26:21;100018.91;;;21.03;93.33
11525;BME280;5819;49.648;8.330;2023-05-09T11:28:53;100015.72;;;20.90;95.04
11525;BME280;5819;49.648;8.330;2023-05-09T11:31:23;100013.06;;;20.80;91.79
11525;BME280;5819;49.648;8.330;2023-05-09T11:33:51;100014.72;;;20.72;94.30
11525;BME280;5819;49.648;8.330;2023-05-09T11:36:27;100008.31;;;20.74;96.36
11525;BME280;5819;49.648;8.330;2023-05-09T11:39:03;100009.44;;;20.72;98.17
11525;BME280;5819;49.648;8.330;2023-05-09T11:41:41;100002.13;;;20.35;100.00
11525;BME280;5819;49.648;8.330;2023-05-09T11:44:14;99994.00;;;20.18;100.00
11525;BME280;5819;49.648;8.330;2023-05-09T11:46:43;99993.13;;;19.98;96.68
11525;BME280;5819;49.648;8.330;2023-05-09T11:49:11;99995.41;;;19.82;97.72
11525;BME280;5819;49.648;8.330;2023-05-09T11:51:39;99992.84;;;19.71;97.53
11525;BME280;5819;49.648;8.330;2023-05-09T11:54:09;99992.25;;;19.67;97.50
11525;BME280;5819;49.648;8.330;2023-05-09T11:56:40;99982.38;;;19.59;97.41
11525;BME280;5819;49.648;8.330;2023-05-09T11:59:08;99989.25;;;19.51;100.00
11525;BME280;5819;49.648;8.330;2023-05-09T12:01:38;99980.19;;;19.65;100.00
11525;BME280;5819;49.648;8.330;2023-05-09T12:04:06;99973.41;;;19.72;99.16
11525;BME280;5819;49.648;8.330;2023-05-09T12:06:35;99981.03;;;19.65;100.00
11525;BME280;5819;49.648;8.330;2023-05-09T12:09:03;99975.88;;;19.63;100.00
11525;BME280;5819;49.648;8.330;2023-05-09T12:11:33;99969.75;;;19.63;100.00
11525;BME280;5819;49.648;8.330;2023-05-09T12:14:02;99960.59;;;19.67;100.00
11525;BME280;5819;49.648;8.330;2023-05-09T12:16:30;99963.97;;;19.79;100.00
11525;BME280;5819;49.648;8.330;2023-05-09T12:18:59;99953.97;;;19.73;98.72
11525;BME280;5819;49.648;8.330;2023-05-09T12:21:27;99952.41;;;19.70;99.71
11525;BME280;5819;49.648;8.330;2023-05-09T12:23:55;99949.06;;;19.68;100.00
11525;BME280;5819;49.648;8.330;2023-05-09T12:26:23;99942.44;;;19.74;100.00
11525;BME280;5819;49.648;8.330;2023-05-09T12:28:53;99933.47;;;19.55;100.00
11525;BME280;5819;49.648;8.330;2023-05-09T12:31:21;99932.22;;;19.59;100.00
11525;BME280;5819;49.648;8.330;2023-05-09T12:33:50;99917.69;;;19.65;100.00
11525;BME280;5819;49.648;8.330;2023-05-09T12:36:18;99926.59;;;19.74;100.00
11525;BME280;5819;49.648;8.330;2023-05-09T12:38:52;99917.13;;;19.71;100.00
11525;BME280;5819;49.648;8.330;2023-05-09T12:41:21;99912.41;;;19.65;100.00
11525;BME280;5819;49.648;8.330;2023-05-09T12:44:08;99899.16;;;19.55;100.00
11525;BME280;5819;49.648;8.330;2023-05-09T12:46:36;99908.31;;;19.51;100.00
11525;BME280;5819;49.648;8.330;2023-05-09T12:49:04;99904.00;;;19.50;100.00
11525;BME280;5819;49.648;8.330;2023-05-09T12:51:32;99907.53;;;19.40;100.00
11525;BME280;5819;49.648;8.330;2023-05-09T12:54:01;99900.78;;;19.47;100.00
11525;BME280;5819;49.648;8.330;2023-05-09T12:56:34;99895.38;;;19.48;100.00
11525;BME280;5819;49.648;8.330;2023-05-09T12:59:01;99888.81;;;19.43;100.00
11525;BME280;5819;49.648;8.330;2023-05-09T13:01:31;99894.22;;;19.41;100.00
11525;BME280;5819;49.648;8.330;2023-05-09T13:04:00;99893.78;;;19.36;100.00
11525;BME280;5819;49.648;8.330;2023-05-09T13:06:29;99895.13;;;19.31;100.00